createdAt,value
2018-09-17T00:01:06.120Z,4.53
2018-09-17T00:03:34.396Z,6.07
2018-09-17T00:06:02.752Z,7.53
2018-09-17T00:08:31.268Z,9.87
2018-09-17T00:10:59.546Z,7.00
2018-09-17T00:13:27.889Z,4.93
2018-09-17T00:15:56.260Z,4.60
2018-09-17T00:18:24.572Z,4.07
2018-09-17T00:20:52.857Z,6.83
2018-09-17T00:23:21.417Z,4.80
2018-09-17T00:25:49.682Z,5.67
2018-09-17T00:28:18.009Z,5.93
2018-09-17T00:30:46.280Z,6.00
2018-09-17T00:35:49.210Z,6.87
2018-09-17T00:38:17.497Z,6.03
2018-09-17T00:40:45.764Z,7.97
2018-09-17T00:43:14.063Z,6.33
2018-09-17T00:45:42.361Z,7.60
2018-09-17T00:48:10.628Z,7.23
2018-09-17T00:50:38.956Z,6.80
2018-09-17T00:53:07.232Z,4.33
2018-09-17T00:55:35.503Z,5.67
2018-09-17T00:58:03.798Z,5.67
2018-09-17T01:00:32.289Z,7.10
2018-09-17T01:03:00.636Z,5.43
2018-09-17T01:05:30.296Z,4.90
2018-09-17T01:07:58.572Z,4.93
2018-09-17T01:10:27.024Z,5.63
2018-09-17T01:12:55.353Z,4.53
2018-09-17T01:15:23.628Z,5.17
2018-09-17T01:17:52.005Z,4.90
2018-09-17T01:20:20.652Z,4.93
2018-09-17T01:22:48.928Z,6.87
2018-09-17T01:25:17.280Z,5.90
2018-09-17T01:27:45.580Z,5.47
2018-09-17T01:30:13.856Z,4.80
2018-09-17T01:32:42.120Z,4.50
2018-09-17T01:35:10.408Z,5.57
2018-09-17T01:37:38.803Z,5.50
2018-09-17T01:40:07.109Z,4.73
2018-09-17T01:42:35.608Z,5.33
2018-09-17T01:45:04.180Z,6.17
2018-09-17T01:47:32.624Z,6.53
2018-09-17T01:50:00.933Z,6.17
2018-09-17T01:52:29.418Z,5.70
2018-09-17T01:54:57.721Z,5.57
2018-09-17T01:57:26.017Z,5.40
2018-09-17T01:59:54.280Z,5.83
2018-09-17T02:02:22.602Z,5.53
2018-09-17T02:04:50.960Z,6.30
2018-09-17T02:07:19.236Z,4.80
2018-09-17T02:09:47.521Z,5.50
2018-09-17T02:12:15.834Z,4.77
2018-09-17T02:14:44.108Z,6.47
2018-09-17T02:17:12.420Z,5.83
2018-09-17T02:19:41.136Z,5.80
2018-09-17T02:22:09.944Z,5.33
2018-09-17T02:24:38.225Z,6.13
2018-09-17T02:27:06.518Z,5.03
2018-09-17T02:29:35.034Z,5.63
2018-09-17T02:32:03.490Z,4.77
2018-09-17T02:34:31.869Z,6.67
2018-09-17T02:37:00.136Z,5.23
2018-09-17T02:39:28.405Z,5.10
2018-09-17T02:41:56.700Z,5.00
2018-09-17T02:44:24.979Z,5.00
2018-09-17T02:46:53.245Z,5.50
2018-09-17T02:49:21.563Z,6.13
2018-09-17T02:51:49.997Z,8.77
2018-09-17T02:54:18.341Z,5.73
2018-09-17T02:56:46.708Z,5.77
2018-09-17T02:59:14.977Z,5.13
2018-09-17T03:01:43.264Z,5.33
2018-09-17T03:04:11.569Z,7.30
2018-09-17T03:06:39.878Z,6.37
2018-09-17T03:09:09.133Z,6.57
2018-09-17T03:11:38.529Z,7.53
2018-09-17T03:14:06.863Z,5.87
2018-09-17T03:17:11.873Z,5.87
2018-09-17T03:19:41.157Z,5.90
2018-09-17T03:22:09.781Z,6.07
2018-09-17T03:24:38.368Z,6.93
2018-09-17T03:27:06.792Z,5.60
2018-09-17T03:29:35.266Z,5.70
2018-09-17T03:32:03.617Z,5.07
2018-09-17T03:34:32.121Z,6.83
2018-09-17T03:37:00.434Z,6.40
2018-09-17T03:39:28.926Z,6.93
2018-09-17T03:41:57.199Z,6.00
2018-09-17T03:44:25.478Z,6.03
2018-09-17T03:46:53.800Z,7.40
2018-09-17T03:49:22.079Z,7.73
2018-09-17T03:51:50.357Z,5.93
2018-09-17T03:54:18.656Z,6.50
2018-09-17T03:56:46.936Z,6.57
2018-09-17T03:59:15.229Z,10.10
2018-09-17T04:01:43.657Z,6.43
2018-09-17T04:04:11.920Z,6.90
2018-09-17T04:06:40.441Z,9.73
2018-09-17T04:09:08.825Z,8.67
2018-09-17T04:11:37.308Z,6.13
2018-09-17T04:14:07.226Z,5.40
2018-09-17T04:16:36.640Z,5.73
2018-09-17T04:19:04.920Z,9.33
2018-09-17T04:21:33.536Z,6.27
2018-09-17T04:24:01.844Z,8.17
2018-09-17T04:26:30.415Z,5.70
2018-09-17T04:28:58.720Z,6.17
2018-09-17T04:31:27.025Z,6.47
2018-09-17T04:33:55.301Z,8.50
2018-09-17T04:36:23.639Z,10.47
2018-09-17T04:38:51.944Z,6.63
2018-09-17T04:41:20.288Z,6.63
2018-09-17T04:43:48.577Z,6.03
2018-09-17T04:46:16.884Z,11.53
2018-09-17T04:48:45.329Z,5.70
2018-09-17T04:51:13.681Z,9.23
2018-09-17T04:53:42.083Z,7.53
2018-09-17T04:56:10.477Z,7.77
2018-09-17T04:58:38.820Z,11.13
2018-09-17T05:01:07.188Z,7.40
2018-09-17T05:03:35.676Z,8.80
2018-09-17T05:06:03.989Z,26.93
2018-09-17T05:08:32.420Z,11.43
2018-09-17T05:11:00.688Z,9.23
2018-09-17T05:13:29.154Z,7.20
2018-09-17T05:15:57.353Z,6.40
2018-09-17T05:18:25.818Z,6.77
2018-09-17T05:20:54.096Z,9.03
2018-09-17T05:23:23.294Z,8.53
2018-09-17T05:25:51.592Z,6.93
2018-09-17T05:28:19.948Z,6.43
2018-09-17T05:30:48.262Z,7.10
2018-09-17T05:33:16.847Z,8.23
2018-09-17T05:35:45.432Z,11.57
2018-09-17T05:38:13.952Z,8.40
2018-09-17T05:40:42.308Z,9.53
2018-09-17T05:43:10.584Z,5.33
2018-09-17T05:45:39.020Z,8.80
2018-09-17T05:48:07.295Z,12.13
2018-09-17T05:50:35.691Z,10.90
2018-09-17T05:53:04.269Z,10.90
2018-09-17T05:55:32.552Z,4.93
2018-09-17T05:58:00.979Z,6.13
2018-09-17T06:00:29.440Z,8.27
2018-09-17T06:02:58.802Z,7.20
2018-09-17T06:05:27.402Z,5.90
2018-09-17T06:07:55.780Z,9.37
2018-09-17T06:10:24.138Z,10.20
2018-09-17T06:12:52.471Z,8.70
2018-09-17T06:15:20.853Z,6.23
2018-09-17T06:17:49.228Z,9.83
2018-09-17T06:20:17.564Z,8.73
2018-09-17T06:22:45.922Z,7.37
2018-09-17T06:25:15.273Z,6.13
2018-09-17T06:27:43.727Z,9.73
2018-09-17T06:30:12.198Z,12.33
2018-09-17T06:32:40.885Z,6.00
2018-09-17T06:35:09.212Z,7.83
2018-09-17T06:37:37.857Z,7.67
2018-09-17T06:40:06.731Z,8.87
2018-09-17T06:42:35.078Z,6.03
2018-09-17T06:45:03.560Z,5.75
2018-09-17T06:47:31.861Z,9.90
2018-09-17T06:50:00.225Z,10.00
2018-09-17T06:52:28.824Z,8.15
2018-09-17T06:54:57.166Z,13.13
2018-09-17T06:57:25.798Z,13.15
2018-09-17T06:59:54.156Z,10.10
2018-09-17T07:02:22.482Z,6.75
2018-09-17T07:04:50.827Z,11.18
2018-09-17T07:07:19.166Z,7.62
2018-09-17T07:09:47.856Z,6.25
2018-09-17T07:12:16.463Z,5.85
2018-09-17T07:14:44.988Z,7.83
2018-09-17T07:17:13.453Z,8.00
2018-09-17T07:19:42.112Z,8.28
2018-09-17T07:22:10.480Z,8.48
2018-09-17T07:24:40.056Z,9.08
2018-09-17T07:27:08.451Z,6.37
2018-09-17T07:29:36.801Z,9.23
2018-09-17T07:32:05.398Z,6.45
2018-09-17T07:34:33.862Z,7.15
2018-09-17T07:37:02.524Z,8.68
2018-09-17T07:39:30.905Z,9.75
2018-09-17T07:41:59.285Z,9.83
2018-09-17T07:44:28.444Z,7.28
2018-09-17T07:46:56.776Z,9.90
2018-09-17T07:49:25.196Z,11.18
2018-09-17T07:51:53.556Z,8.38
2018-09-17T07:54:21.966Z,5.15
2018-09-17T07:56:50.437Z,14.60
2018-09-17T07:59:18.872Z,9.25
2018-09-17T08:01:47.421Z,7.22
2018-09-17T08:04:15.748Z,8.38
2018-09-17T08:06:44.365Z,6.67
2018-09-17T08:09:14.137Z,6.15
2018-09-17T08:11:43.725Z,7.80
2018-09-17T08:14:13.080Z,9.23
2018-09-17T08:16:41.706Z,10.13
2018-09-17T08:19:10.080Z,17.82
2018-09-17T08:21:38.552Z,9.40
2018-09-17T08:24:07.039Z,10.00
2018-09-17T08:26:35.463Z,7.10
2018-09-17T08:29:03.850Z,9.55
2018-09-17T08:31:32.213Z,9.40
2018-09-17T08:34:00.605Z,7.42
2018-09-17T08:36:28.972Z,5.67
2018-09-17T08:38:57.317Z,5.97
2018-09-17T08:41:25.776Z,5.72
2018-09-17T08:43:54.144Z,9.08
2018-09-17T08:46:22.533Z,7.60
2018-09-17T08:48:50.900Z,6.42
2018-09-17T08:51:19.280Z,5.97
2018-09-17T08:53:47.669Z,6.85
2018-09-17T08:56:22.086Z,7.05
2018-09-17T08:58:55.872Z,7.17
2018-09-17T09:01:29.276Z,8.78
2018-09-17T09:04:03.015Z,7.15
2018-09-17T09:06:36.672Z,7.45
2018-09-17T09:09:08.032Z,13.13
2018-09-17T09:11:41.989Z,7.65
2018-09-17T09:14:14.561Z,8.00
2018-09-17T09:16:43.292Z,9.85
2018-09-17T09:19:12.626Z,14.70
2018-09-17T09:21:41.057Z,9.08
2018-09-17T09:24:09.510Z,9.75
2018-09-17T09:26:37.917Z,12.20
2018-09-17T09:29:06.268Z,9.03
2018-09-17T09:31:34.697Z,8.95
2018-09-17T09:34:03.162Z,10.15
2018-09-17T09:36:31.480Z,8.68
2018-09-17T09:38:59.880Z,9.03
2018-09-17T09:41:28.303Z,6.72
2018-09-17T09:43:56.728Z,7.15
2018-09-17T09:46:25.129Z,9.20
2018-09-17T09:48:53.705Z,8.58
2018-09-17T09:51:22.110Z,7.50
2018-09-17T09:53:50.695Z,6.35
2018-09-17T09:56:19.042Z,6.40
2018-09-17T09:58:47.516Z,7.05
2018-09-17T10:01:21.252Z,7.30
2018-09-17T10:04:26.490Z,11.03
2018-09-17T10:06:55.004Z,5.28
2018-09-17T10:09:28.889Z,6.22
2018-09-17T10:12:03.105Z,10.38
2018-09-17T10:14:36.820Z,5.95
2018-09-17T10:17:10.580Z,5.50
2018-09-17T10:19:44.254Z,4.85
2018-09-17T10:22:12.599Z,5.50
2018-09-17T10:24:40.950Z,6.60
2018-09-17T10:27:09.272Z,5.30
2018-09-17T10:29:37.649Z,6.12
2018-09-17T10:32:06.021Z,6.50
2018-09-17T10:34:34.351Z,7.15
2018-09-17T10:37:02.991Z,7.20
2018-09-17T10:39:31.397Z,6.22
2018-09-17T10:41:59.686Z,5.67
2018-09-17T10:44:28.072Z,6.67
2018-09-17T10:46:56.581Z,7.03
2018-09-17T10:49:24.921Z,7.22
2018-09-17T10:51:53.264Z,8.10
2018-09-17T10:54:21.589Z,6.92
2018-09-17T10:56:49.986Z,7.08
2018-09-17T10:59:18.413Z,6.97
2018-09-17T11:01:46.826Z,11.22
2018-09-17T11:04:15.179Z,6.33
2018-09-17T11:06:43.605Z,6.95
2018-09-17T11:09:12.856Z,6.72
2018-09-17T11:11:41.557Z,6.83
2018-09-17T11:14:10.417Z,10.05
2018-09-17T11:16:38.864Z,7.80
2018-09-17T11:19:07.219Z,5.50
2018-09-17T11:21:35.561Z,9.95
2018-09-17T11:24:03.918Z,7.15
2018-09-17T11:26:32.329Z,5.80
2018-09-17T11:29:00.900Z,7.42
2018-09-17T11:31:29.881Z,7.70
2018-09-17T11:33:58.256Z,10.05
2018-09-17T11:36:26.646Z,6.00
2018-09-17T11:38:54.987Z,6.30
2018-09-17T11:41:23.376Z,9.00
2018-09-17T11:43:52.204Z,5.47
2018-09-17T11:46:20.590Z,4.58
2018-09-17T11:48:49.201Z,7.67
2018-09-17T11:51:17.568Z,4.28
2018-09-17T11:53:46.125Z,4.22
2018-09-17T11:56:14.582Z,4.33
2018-09-17T11:58:42.911Z,6.50
2018-09-17T12:01:16.584Z,4.50
2018-09-17T12:03:50.637Z,6.30
2018-09-17T12:06:24.461Z,5.42
2018-09-17T12:08:52.898Z,5.83
2018-09-17T12:11:21.230Z,5.40
2018-09-17T12:13:49.772Z,5.47
2018-09-17T12:16:19.309Z,6.55
2018-09-17T12:18:47.877Z,4.80
2018-09-17T12:21:16.992Z,5.28
2018-09-17T12:23:45.496Z,7.12
2018-09-17T12:26:13.844Z,4.70
2018-09-17T12:28:42.188Z,3.92
2018-09-17T12:31:11.649Z,4.30
2018-09-17T12:33:40.212Z,4.30
2018-09-17T12:36:08.479Z,4.20
2018-09-17T12:38:37.504Z,6.85
2018-09-17T12:41:06.243Z,8.78
2018-09-17T12:43:35.094Z,4.95
2018-09-17T12:46:03.479Z,5.47
2018-09-17T12:48:31.925Z,6.22
2018-09-17T12:51:00.535Z,4.40
2018-09-17T12:53:28.956Z,5.22
2018-09-17T12:55:57.349Z,4.72
2018-09-17T12:58:25.696Z,5.08
2018-09-17T13:00:54.261Z,5.20
2018-09-17T13:03:22.980Z,4.97
2018-09-17T13:05:51.478Z,5.03
2018-09-17T13:08:19.971Z,4.85
2018-09-17T13:10:48.469Z,5.78
2018-09-17T13:13:16.837Z,18.37
2018-09-17T13:15:50.620Z,5.03
2018-09-17T13:18:18.980Z,5.67
2018-09-17T13:20:47.368Z,6.10
2018-09-17T13:23:15.924Z,4.65
2018-09-17T13:25:44.445Z,4.28
2018-09-17T13:28:12.809Z,5.00
2018-09-17T13:30:41.168Z,7.10
2018-09-17T13:33:10.492Z,5.22
2018-09-17T13:35:38.841Z,5.05
2018-09-17T13:38:07.350Z,4.83
2018-09-17T13:40:35.736Z,5.03
2018-09-17T13:43:04.463Z,5.10
2018-09-17T13:45:32.957Z,5.60
2018-09-17T13:48:02.796Z,6.10
2018-09-17T13:50:31.249Z,5.40
2018-09-17T13:52:59.748Z,5.33
2018-09-17T13:55:28.374Z,5.28
2018-09-17T13:57:56.890Z,5.10
2018-09-17T14:00:25.298Z,7.90
2018-09-17T14:02:53.851Z,4.90
2018-09-17T14:05:22.159Z,5.10
2018-09-17T14:07:50.870Z,6.45
2018-09-17T14:10:19.329Z,6.50
2018-09-17T14:12:47.653Z,5.35
2018-09-17T14:15:16.080Z,5.83
2018-09-17T14:17:44.558Z,5.05
2018-09-17T14:20:12.922Z,5.58
2018-09-17T14:22:41.611Z,6.53
2018-09-17T14:25:10.063Z,7.47
2018-09-17T14:27:38.511Z,5.08
2018-09-17T14:30:06.909Z,7.28
2018-09-17T14:32:40.877Z,4.97
2018-09-17T14:35:09.821Z,5.12
2018-09-17T14:37:38.417Z,5.05
2018-09-17T14:40:06.848Z,5.87
2018-09-17T14:42:35.333Z,5.58
2018-09-17T14:45:03.753Z,6.10
2018-09-17T14:47:32.153Z,5.33
2018-09-17T14:50:00.525Z,4.28
2018-09-17T14:52:28.985Z,8.55
2018-09-17T14:54:57.502Z,5.30
2018-09-17T14:57:25.880Z,4.90
2018-09-17T14:59:54.296Z,6.05
2018-09-17T15:02:23.017Z,5.85
2018-09-17T15:04:51.521Z,5.35
2018-09-17T15:07:19.840Z,6.08
2018-09-17T15:09:48.159Z,5.42
2018-09-17T15:12:16.520Z,5.42
2018-09-17T15:14:45.062Z,5.40
2018-09-17T15:17:13.329Z,6.53
2018-09-17T15:19:42.076Z,5.47
2018-09-17T15:22:10.451Z,5.95
2018-09-17T15:24:38.776Z,4.80
2018-09-17T15:27:07.145Z,5.40
2018-09-17T15:29:35.470Z,4.50
2018-09-17T15:32:03.853Z,5.10
2018-09-17T15:34:32.270Z,4.97
2018-09-17T15:37:01.038Z,4.58
2018-09-17T15:39:29.404Z,4.50
2018-09-17T15:41:57.896Z,6.95
2018-09-17T15:44:26.642Z,4.72
2018-09-17T15:46:55.063Z,4.72
2018-09-17T15:49:23.368Z,5.80
2018-09-17T15:51:51.710Z,5.53
2018-09-17T15:54:20.051Z,5.50
2018-09-17T15:56:48.329Z,4.00
2018-09-17T15:59:16.670Z,17.42
2018-09-17T16:01:45.008Z,7.50
2018-09-17T16:04:13.341Z,4.05
2018-09-17T16:06:41.660Z,11.22
2018-09-17T16:09:10.037Z,6.80
2018-09-17T16:11:38.364Z,7.50
2018-09-17T16:14:07.182Z,4.45
2018-09-17T16:16:35.569Z,7.85
2018-09-17T16:19:04.233Z,4.03
2018-09-17T16:21:33.825Z,7.58
2018-09-17T16:24:02.469Z,3.55
2018-09-17T16:26:30.812Z,5.35
2018-09-17T16:28:59.254Z,4.40
2018-09-17T16:31:27.945Z,5.08
2018-09-17T16:33:56.712Z,5.03
2018-09-17T16:36:25.026Z,8.55
2018-09-17T16:38:53.359Z,5.58
2018-09-17T16:41:21.845Z,5.97
2018-09-17T16:43:50.224Z,7.75
2018-09-17T16:46:18.561Z,9.00
2018-09-17T16:48:46.924Z,5.53
2018-09-17T16:51:15.340Z,8.50
2018-09-17T16:53:43.688Z,6.00
2018-09-17T16:56:12.046Z,5.25
2018-09-17T16:58:40.408Z,8.10
2018-09-17T17:01:08.740Z,12.70
2018-09-17T17:03:37.100Z,7.47
2018-09-17T17:06:05.462Z,7.03
2018-09-17T17:08:33.784Z,7.55
2018-09-17T17:11:02.231Z,5.37
2018-09-17T17:13:30.614Z,6.05
2018-09-17T17:15:59.108Z,7.92
2018-09-17T17:18:27.421Z,9.45
2018-09-17T17:20:55.767Z,26.05
2018-09-17T17:23:24.073Z,11.53
2018-09-17T17:25:52.444Z,19.82
2018-09-17T17:28:20.946Z,30.23
2018-09-17T17:30:49.228Z,27.70
2018-09-17T17:33:17.655Z,8.07
2018-09-17T17:35:46.172Z,11.23
2018-09-17T17:38:14.510Z,5.87
2018-09-17T17:40:43.069Z,5.60
2018-09-17T17:43:11.193Z,11.43
2018-09-17T17:45:39.541Z,8.10
2018-09-17T17:48:07.926Z,9.37
2018-09-17T17:50:36.228Z,7.20
2018-09-17T17:53:04.570Z,8.07
2018-09-17T17:55:33.213Z,15.77
2018-09-17T17:58:01.582Z,7.10
2018-09-17T18:00:29.812Z,9.27
2018-09-17T18:02:58.129Z,12.80
2018-09-17T18:05:26.417Z,11.23
2018-09-17T18:07:54.684Z,10.03
2018-09-17T18:10:22.989Z,6.23
2018-09-17T18:12:51.307Z,22.37
2018-09-17T18:15:19.663Z,12.50
2018-09-17T18:17:47.932Z,15.17
2018-09-17T18:20:16.248Z,15.77
2018-09-17T18:22:44.528Z,20.97
2018-09-17T18:25:12.826Z,10.43
2018-09-17T18:27:41.113Z,12.47
2018-09-17T18:30:09.696Z,16.30
2018-09-17T18:32:38.012Z,13.30
2018-09-17T18:35:06.439Z,13.20
2018-09-17T18:37:34.737Z,16.23
2018-09-17T18:40:03.053Z,10.53
2018-09-17T18:42:31.390Z,10.00
2018-09-17T18:44:59.930Z,11.23
2018-09-17T18:47:28.340Z,16.17
2018-09-17T18:49:56.633Z,16.27
2018-09-17T18:52:24.916Z,11.23
2018-09-17T18:54:53.409Z,22.70
2018-09-17T18:57:21.721Z,19.87
2018-09-17T18:59:50.324Z,26.33
2018-09-17T19:02:18.679Z,19.33
2018-09-17T19:04:46.969Z,16.00
2018-09-17T19:07:15.264Z,37.50
2018-09-17T19:09:48.417Z,18.17
2018-09-17T19:12:17.595Z,25.23
2018-09-17T19:14:51.247Z,20.83
2018-09-17T19:17:24.844Z,27.73
2018-09-17T19:19:53.693Z,21.97
2018-09-17T19:22:27.414Z,23.60
2018-09-17T19:24:55.808Z,33.83
2018-09-17T19:27:31.201Z,31.97
2018-09-17T19:29:59.539Z,29.67
2018-09-17T19:32:27.832Z,20.67
2018-09-17T19:34:56.110Z,27.50
2018-09-17T19:37:29.845Z,18.73
2018-09-17T19:40:03.451Z,23.83
2018-09-17T19:42:31.888Z,21.83
2018-09-17T19:45:05.405Z,19.00
2018-09-17T19:47:33.757Z,14.60
2018-09-17T19:50:06.622Z,18.20
2018-09-17T19:52:35.206Z,18.37
2018-09-17T19:55:03.521Z,22.27
2018-09-17T19:57:37.157Z,20.77
2018-09-17T20:00:06.132Z,13.23
2018-09-17T20:02:34.408Z,17.20
2018-09-17T20:05:08.160Z,19.10
2018-09-17T20:07:36.459Z,14.23
2018-09-17T20:10:05.205Z,12.97
2018-09-17T20:12:33.541Z,19.47
2018-09-17T20:15:02.098Z,19.53
2018-09-17T20:17:30.386Z,15.83
2018-09-17T20:19:58.720Z,13.17
2018-09-17T20:22:27.000Z,15.30
2018-09-17T20:24:55.291Z,11.50
2018-09-17T20:27:23.612Z,13.27
2018-09-17T20:29:51.905Z,22.50
2018-09-17T20:32:20.188Z,11.37
2018-09-17T20:34:48.512Z,13.40
2018-09-17T20:37:17.222Z,27.40
2018-09-17T20:39:45.589Z,14.50
2018-09-17T20:42:13.944Z,14.57
2018-09-17T20:44:42.233Z,15.93
2018-09-17T20:47:10.520Z,17.00
2018-09-17T20:49:38.991Z,15.30
2018-09-17T20:52:07.172Z,11.40
2018-09-17T20:54:35.456Z,13.93
2018-09-17T20:57:04.145Z,7.07
2018-09-17T20:59:32.440Z,10.40
2018-09-17T21:02:00.756Z,11.70
2018-09-17T21:04:29.076Z,7.83
2018-09-17T21:06:57.510Z,14.17
2018-09-17T21:09:25.796Z,15.97
2018-09-17T21:11:54.053Z,20.87
2018-09-17T21:14:22.333Z,33.83
2018-09-17T21:16:50.719Z,12.77
2018-09-17T21:19:19.117Z,14.27
2018-09-17T21:21:47.372Z,14.03
2018-09-17T21:24:15.664Z,12.00
2018-09-17T21:26:43.973Z,17.60
2018-09-17T21:29:12.369Z,16.23
2018-09-17T21:31:40.705Z,15.67
2018-09-17T21:34:09.139Z,12.30
2018-09-17T21:36:37.412Z,12.27
2018-09-17T21:39:08.941Z,10.27
2018-09-17T21:41:37.240Z,7.90
2018-09-17T21:44:08.702Z,9.30
2018-09-17T21:46:37.124Z,12.97
2018-09-17T21:49:05.560Z,18.43
2018-09-17T21:51:33.849Z,15.63
2018-09-17T21:54:02.148Z,17.37
2018-09-17T21:56:30.429Z,14.73
2018-09-17T21:58:58.709Z,12.37
2018-09-17T22:01:27.105Z,16.07
2018-09-17T22:03:55.428Z,11.90
2018-09-17T22:06:23.829Z,14.90
2018-09-17T22:08:52.126Z,12.07
2018-09-17T22:11:20.460Z,7.10
2018-09-17T22:13:48.877Z,12.50
2018-09-17T22:16:17.176Z,10.73
2018-09-17T22:18:45.453Z,13.87
2018-09-17T22:21:13.831Z,8.43
2018-09-17T22:23:42.425Z,18.60
2018-09-17T22:26:10.912Z,10.00
2018-09-17T22:28:39.199Z,9.90
2018-09-17T22:31:07.688Z,9.20
2018-09-17T22:33:36.192Z,9.40
2018-09-17T22:36:04.637Z,8.63
2018-09-17T22:38:32.935Z,12.40
2018-09-17T22:41:01.309Z,10.77
2018-09-17T22:43:29.580Z,9.73
2018-09-17T22:45:57.881Z,10.27
2018-09-17T22:48:26.205Z,10.80
2018-09-17T22:50:54.578Z,6.20
2018-09-17T22:53:23.056Z,8.70
2018-09-17T22:55:51.344Z,13.00
2018-09-17T22:58:19.621Z,11.70
2018-09-17T23:00:47.917Z,9.60
2018-09-17T23:03:16.364Z,9.10
2018-09-17T23:05:44.636Z,6.37
2018-09-17T23:08:13.100Z,6.53
2018-09-17T23:10:41.388Z,10.43
2018-09-17T23:13:09.852Z,12.57
2018-09-17T23:15:38.140Z,7.00
2018-09-17T23:18:06.701Z,7.47
2018-09-17T23:20:35.068Z,10.13
2018-09-17T23:23:03.401Z,8.83
2018-09-17T23:25:31.688Z,7.07
2018-09-17T23:27:59.956Z,10.80
2018-09-17T23:30:28.480Z,6.83
2018-09-17T23:32:56.761Z,8.53
2018-09-17T23:35:25.126Z,8.90
2018-09-17T23:37:53.427Z,10.67
2018-09-17T23:40:21.740Z,7.30
2018-09-17T23:42:50.048Z,8.07
2018-09-17T23:45:18.688Z,10.13
2018-09-17T23:47:46.985Z,8.60
2018-09-17T23:50:15.341Z,10.03
2018-09-17T23:52:43.644Z,7.63
2018-09-17T23:55:11.936Z,7.03
2018-09-17T23:57:40.216Z,9.63
